sensor_id;sensor_type;location;lat;lon;timestamp;P1;durP1;ratioP1;P2;durP2;ratioP2
42084;SDS011;27746;52.228;20.890;2023-04-10T00:01:55;28.60;;;18.42;;
42084;SDS011;27746;52.228;20.890;2023-04-10T00:04:22;27.25;;;17.25;;
42084;SDS011;27746;52.228;20.890;2023-04-10T00:06:50;30.80;;;18.40;;
42084;SDS011;27746;52.228;20.890;2023-04-10T00:09:17;31.42;;;19.25;;
42084;SDS011;27746;52.228;20.890;2023-04-10T00:11:43;30.20;;;18.38;;
42084;SDS011;27746;52.228;20.890;2023-04-10T00:14:10;30.80;;;17.85;;
42084;SDS011;27746;52.228;20.890;2023-04-10T00:16:37;32.00;;;19.10;;
42084;SDS011;27746;52.228;20.890;2023-04-10T00:19:04;28.55;;;18.13;;
42084;SDS011;27746;52.228;20.890;2023-04-10T00:21:32;26.65;;;16.85;;
42084;SDS011;27746;52.228;20.890;2023-04-10T00:24:00;27.45;;;16.88;;
42084;SDS011;27746;52.228;20.890;2023-04-10T00:26:28;26.75;;;16.35;;
42084;SDS011;27746;52.228;20.890;2023-04-10T00:28:55;28.90;;;16.63;;
42084;SDS011;27746;52.228;20.890;2023-04-10T00:31:22;27.08;;;17.45;;
42084;SDS011;27746;52.228;20.890;2023-04-10T00:33:49;28.25;;;18.00;;
42084;SDS011;27746;52.228;20.890;2023-04-10T00:36:16;27.55;;;18.23;;
42084;SDS011;27746;52.228;20.890;2023-04-10T00:38:43;28.50;;;17.98;;
42084;SDS011;27746;52.228;20.890;2023-04-10T00:41:13;29.92;;;18.00;;
42084;SDS011;27746;52.228;20.890;2023-04-10T00:43:40;31.50;;;17.98;;
42084;SDS011;27746;52.228;20.890;2023-04-10T00:46:07;29.48;;;18.48;;
42084;SDS011;27746;52.228;20.890;2023-04-10T00:48:35;27.90;;;19.00;;
42084;SDS011;27746;52.228;20.890;2023-04-10T00:51:02;28.90;;;17.73;;
42084;SDS011;27746;52.228;20.890;2023-04-10T00:53:31;30.05;;;19.70;;
42084;SDS011;27746;52.228;20.890;2023-04-10T00:55:58;27.08;;;18.45;;
42084;SDS011;27746;52.228;20.890;2023-04-10T00:58:28;28.20;;;19.08;;
42084;SDS011;27746;52.228;20.890;2023-04-10T01:00:54;28.67;;;17.48;;
42084;SDS011;27746;52.228;20.890;2023-04-10T01:03:21;27.10;;;18.15;;
42084;SDS011;27746;52.228;20.890;2023-04-10T01:05:50;28.75;;;18.17;;
42084;SDS011;27746;52.228;20.890;2023-04-10T01:08:23;27.50;;;17.02;;
42084;SDS011;27746;52.228;20.890;2023-04-10T01:11:00;29.20;;;17.85;;
42084;SDS011;27746;52.228;20.890;2023-04-10T01:13:34;31.75;;;17.75;;
42084;SDS011;27746;52.228;20.890;2023-04-10T01:16:08;31.48;;;18.77;;
42084;SDS011;27746;52.228;20.890;2023-04-10T01:18:43;27.17;;;17.98;;
42084;SDS011;27746;52.228;20.890;2023-04-10T01:21:13;30.17;;;18.10;;
42084;SDS011;27746;52.228;20.890;2023-04-10T01:23:59;26.50;;;17.95;;
42084;SDS011;27746;52.228;20.890;2023-04-10T01:26:41;30.20;;;17.70;;
42084;SDS011;27746;52.228;20.890;2023-04-10T01:29:19;28.85;;;16.45;;
42084;SDS011;27746;52.228;20.890;2023-04-10T01:31:49;24.73;;;15.52;;
42084;SDS011;27746;52.228;20.890;2023-04-10T01:34:21;26.10;;;14.68;;
42084;SDS011;27746;52.228;20.890;2023-04-10T01:36:52;26.90;;;16.08;;
42084;SDS011;27746;52.228;20.890;2023-04-10T01:39:21;25.95;;;16.20;;
42084;SDS011;27746;52.228;20.890;2023-04-10T01:41:52;24.42;;;15.73;;
42084;SDS011;27746;52.228;20.890;2023-04-10T01:44:24;26.13;;;15.30;;
42084;SDS011;27746;52.228;20.890;2023-04-10T01:46:53;22.92;;;14.57;;
42084;SDS011;27746;52.228;20.890;2023-04-10T01:49:22;23.10;;;15.00;;
42084;SDS011;27746;52.228;20.890;2023-04-10T01:51:51;24.83;;;13.80;;
42084;SDS011;27746;52.228;20.890;2023-04-10T01:54:22;25.02;;;15.35;;
42084;SDS011;27746;52.228;20.890;2023-04-10T01:56:49;23.98;;;14.70;;
42084;SDS011;27746;52.228;20.890;2023-04-10T01:59:16;23.65;;;14.02;;
42084;SDS011;27746;52.228;20.890;2023-04-10T02:01:45;21.75;;;13.77;;
42084;SDS011;27746;52.228;20.890;2023-04-10T02:04:12;23.88;;;14.90;;
42084;SDS011;27746;52.228;20.890;2023-04-10T02:06:40;26.88;;;16.42;;
42084;SDS011;27746;52.228;20.890;2023-04-10T02:09:14;24.63;;;15.10;;
42084;SDS011;27746;52.228;20.890;2023-04-10T02:11:48;25.75;;;15.73;;
42084;SDS011;27746;52.228;20.890;2023-04-10T02:14:20;24.67;;;16.17;;
42084;SDS011;27746;52.228;20.890;2023-04-10T02:16:51;25.95;;;16.00;;
42084;SDS011;27746;52.228;20.890;2023-04-10T02:19:20;27.17;;;17.10;;
42084;SDS011;27746;52.228;20.890;2023-04-10T02:21:49;27.90;;;15.85;;
42084;SDS011;27746;52.228;20.890;2023-04-10T02:24:17;23.13;;;15.43;;
42084;SDS011;27746;52.228;20.890;2023-04-10T02:26:45;26.83;;;16.42;;
42084;SDS011;27746;52.228;20.890;2023-04-10T02:29:13;28.83;;;17.67;;
42084;SDS011;27746;52.228;20.890;2023-04-10T02:31:39;30.52;;;15.90;;
42084;SDS011;27746;52.228;20.890;2023-04-10T02:34:08;28.58;;;17.10;;
42084;SDS011;27746;52.228;20.890;2023-04-10T02:36:35;26.73;;;16.60;;
42084;SDS011;27746;52.228;20.890;2023-04-10T02:39:03;28.50;;;16.85;;
42084;SDS011;27746;52.228;20.890;2023-04-10T02:41:30;28.73;;;17.05;;
42084;SDS011;27746;52.228;20.890;2023-04-10T02:43:57;28.35;;;18.58;;
42084;SDS011;27746;52.228;20.890;2023-04-10T02:46:24;26.15;;;16.48;;
42084;SDS011;27746;52.228;20.890;2023-04-10T02:48:51;30.17;;;17.10;;
42084;SDS011;27746;52.228;20.890;2023-04-10T02:51:20;29.83;;;18.55;;
42084;SDS011;27746;52.228;20.890;2023-04-10T02:53:47;27.67;;;17.48;;
42084;SDS011;27746;52.228;20.890;2023-04-10T02:56:14;26.17;;;15.90;;
42084;SDS011;27746;52.228;20.890;2023-04-10T02:58:42;30.05;;;16.67;;
42084;SDS011;27746;52.228;20.890;2023-04-10T03:01:11;29.75;;;18.20;;
42084;SDS011;27746;52.228;20.890;2023-04-10T03:03:38;30.15;;;18.67;;
42084;SDS011;27746;52.228;20.890;2023-04-10T03:06:07;29.83;;;17.95;;
42084;SDS011;27746;52.228;20.890;2023-04-10T03:08:36;30.38;;;18.95;;
42084;SDS011;27746;52.228;20.890;2023-04-10T03:11:03;30.08;;;19.13;;
42084;SDS011;27746;52.228;20.890;2023-04-10T03:13:30;29.10;;;16.98;;
42084;SDS011;27746;52.228;20.890;2023-04-10T03:15:57;33.03;;;18.52;;
42084;SDS011;27746;52.228;20.890;2023-04-10T03:18:24;29.65;;;18.05;;
42084;SDS011;27746;52.228;20.890;2023-04-10T03:20:51;30.48;;;17.70;;
42084;SDS011;27746;52.228;20.890;2023-04-10T03:23:19;30.63;;;18.25;;
42084;SDS011;27746;52.228;20.890;2023-04-10T03:25:49;28.00;;;16.83;;
42084;SDS011;27746;52.228;20.890;2023-04-10T03:28:17;27.58;;;17.35;;
42084;SDS011;27746;52.228;20.890;2023-04-10T03:30:44;27.73;;;16.95;;
42084;SDS011;27746;52.228;20.890;2023-04-10T03:33:12;27.40;;;16.92;;
42084;SDS011;27746;52.228;20.890;2023-04-10T03:35:38;25.25;;;15.82;;
42084;SDS011;27746;52.228;20.890;2023-04-10T03:38:06;26.55;;;15.93;;
42084;SDS011;27746;52.228;20.890;2023-04-10T03:40:33;25.17;;;15.07;;
42084;SDS011;27746;52.228;20.890;2023-04-10T03:43:01;27.33;;;15.20;;
42084;SDS011;27746;52.228;20.890;2023-04-10T03:45:28;26.58;;;17.20;;
42084;SDS011;27746;52.228;20.890;2023-04-10T03:47:55;26.00;;;16.33;;
42084;SDS011;27746;52.228;20.890;2023-04-10T03:50:22;24.60;;;16.27;;
42084;SDS011;27746;52.228;20.890;2023-04-10T03:52:49;24.25;;;16.27;;
42084;SDS011;27746;52.228;20.890;2023-04-10T03:55:19;26.10;;;15.25;;
42084;SDS011;27746;52.228;20.890;2023-04-10T03:57:46;24.55;;;14.60;;
42084;SDS011;27746;52.228;20.890;2023-04-10T04:00:15;26.05;;;16.10;;
42084;SDS011;27746;52.228;20.890;2023-04-10T04:02:43;27.35;;;14.68;;
42084;SDS011;27746;52.228;20.890;2023-04-10T04:05:10;22.30;;;14.15;;
42084;SDS011;27746;52.228;20.890;2023-04-10T04:07:39;26.80;;;16.70;;
42084;SDS011;27746;52.228;20.890;2023-04-10T04:10:07;27.63;;;14.95;;
42084;SDS011;27746;52.228;20.890;2023-04-10T04:12:34;25.23;;;15.43;;
42084;SDS011;27746;52.228;20.890;2023-04-10T04:15:01;24.60;;;16.05;;
42084;SDS011;27746;52.228;20.890;2023-04-10T04:17:29;26.90;;;15.82;;
42084;SDS011;27746;52.228;20.890;2023-04-10T04:19:56;30.70;;;16.27;;
42084;SDS011;27746;52.228;20.890;2023-04-10T04:22:23;24.10;;;15.55;;
42084;SDS011;27746;52.228;20.890;2023-04-10T04:24:50;23.25;;;14.63;;
42084;SDS011;27746;52.228;20.890;2023-04-10T04:27:17;25.15;;;15.80;;
42084;SDS011;27746;52.228;20.890;2023-04-10T04:29:45;24.25;;;14.93;;
42084;SDS011;27746;52.228;20.890;2023-04-10T04:32:12;24.92;;;15.98;;
42084;SDS011;27746;52.228;20.890;2023-04-10T04:34:41;24.60;;;14.48;;
42084;SDS011;27746;52.228;20.890;2023-04-10T04:37:08;24.13;;;15.25;;
42084;SDS011;27746;52.228;20.890;2023-04-10T04:39:35;25.10;;;15.27;;
42084;SDS011;27746;52.228;20.890;2023-04-10T04:42:01;22.48;;;13.80;;
42084;SDS011;27746;52.228;20.890;2023-04-10T04:44:28;22.05;;;14.30;;
42084;SDS011;27746;52.228;20.890;2023-04-10T04:46:55;20.50;;;12.90;;
42084;SDS011;27746;52.228;20.890;2023-04-10T04:49:23;18.02;;;12.35;;
42084;SDS011;27746;52.228;20.890;2023-04-10T04:51:51;16.88;;;12.27;;
42084;SDS011;27746;52.228;20.890;2023-04-10T04:54:18;20.02;;;13.75;;
42084;SDS011;27746;52.228;20.890;2023-04-10T04:56:45;17.95;;;12.52;;
42084;SDS011;27746;52.228;20.890;2023-04-10T04:59:12;20.17;;;12.88;;
42084;SDS011;27746;52.228;20.890;2023-04-10T05:01:39;21.88;;;12.32;;
42084;SDS011;27746;52.228;20.890;2023-04-10T05:04:06;20.73;;;13.23;;
42084;SDS011;27746;52.228;20.890;2023-04-10T05:06:33;18.33;;;13.10;;
42084;SDS011;27746;52.228;20.890;2023-04-10T05:09:02;21.67;;;13.80;;
42084;SDS011;27746;52.228;20.890;2023-04-10T05:11:29;20.63;;;12.73;;
42084;SDS011;27746;52.228;20.890;2023-04-10T05:13:56;19.35;;;12.40;;
42084;SDS011;27746;52.228;20.890;2023-04-10T05:16:23;21.98;;;13.73;;
42084;SDS011;27746;52.228;20.890;2023-04-10T05:18:51;16.33;;;11.63;;
42084;SDS011;27746;52.228;20.890;2023-04-10T05:21:18;20.35;;;12.93;;
42084;SDS011;27746;52.228;20.890;2023-04-10T05:23:45;19.88;;;12.90;;
42084;SDS011;27746;52.228;20.890;2023-04-10T05:26:13;24.38;;;14.20;;
42084;SDS011;27746;52.228;20.890;2023-04-10T05:28:40;23.20;;;13.75;;
42084;SDS011;27746;52.228;20.890;2023-04-10T05:31:07;18.20;;;12.73;;
42084;SDS011;27746;52.228;20.890;2023-04-10T05:33:34;18.67;;;13.10;;
42084;SDS011;27746;52.228;20.890;2023-04-10T05:36:01;21.17;;;13.18;;
42084;SDS011;27746;52.228;20.890;2023-04-10T05:38:28;21.38;;;12.63;;
42084;SDS011;27746;52.228;20.890;2023-04-10T05:40:55;19.35;;;13.45;;
42084;SDS011;27746;52.228;20.890;2023-04-10T05:43:25;18.65;;;12.93;;
42084;SDS011;27746;52.228;20.890;2023-04-10T05:45:52;20.10;;;13.45;;
42084;SDS011;27746;52.228;20.890;2023-04-10T05:48:19;19.63;;;13.55;;
42084;SDS011;27746;52.228;20.890;2023-04-10T05:50:50;16.65;;;11.73;;
42084;SDS011;27746;52.228;20.890;2023-04-10T05:53:18;21.92;;;13.18;;
42084;SDS011;27746;52.228;20.890;2023-04-10T05:55:48;18.77;;;12.57;;
42084;SDS011;27746;52.228;20.890;2023-04-10T05:58:16;19.65;;;12.60;;
42084;SDS011;27746;52.228;20.890;2023-04-10T06:00:45;15.73;;;10.60;;
42084;SDS011;27746;52.228;20.890;2023-04-10T06:03:11;16.00;;;12.10;;
42084;SDS011;27746;52.228;20.890;2023-04-10T06:05:38;17.02;;;11.55;;
42084;SDS011;27746;52.228;20.890;2023-04-10T06:08:06;18.60;;;12.10;;
42084;SDS011;27746;52.228;20.890;2023-04-10T06:10:33;18.13;;;11.45;;
42084;SDS011;27746;52.228;20.890;2023-04-10T06:13:00;19.90;;;12.20;;
42084;SDS011;27746;52.228;20.890;2023-04-10T06:15:27;18.00;;;12.07;;
42084;SDS011;27746;52.228;20.890;2023-04-10T06:17:56;16.85;;;11.45;;
42084;SDS011;27746;52.228;20.890;2023-04-10T06:20:23;14.77;;;10.73;;
42084;SDS011;27746;52.228;20.890;2023-04-10T06:22:50;17.48;;;11.95;;
42084;SDS011;27746;52.228;20.890;2023-04-10T06:25:17;18.45;;;11.60;;
42084;SDS011;27746;52.228;20.890;2023-04-10T06:27:44;21.00;;;11.85;;
42084;SDS011;27746;52.228;20.890;2023-04-10T06:30:11;18.23;;;11.80;;
42084;SDS011;27746;52.228;20.890;2023-04-10T06:32:39;16.08;;;10.98;;
42084;SDS011;27746;52.228;20.890;2023-04-10T06:35:08;21.75;;;12.52;;
42084;SDS011;27746;52.228;20.890;2023-04-10T06:37:35;17.38;;;11.18;;
42084;SDS011;27746;52.228;20.890;2023-04-10T06:40:02;16.58;;;10.52;;
42084;SDS011;27746;52.228;20.890;2023-04-10T06:42:31;15.55;;;10.70;;
42084;SDS011;27746;52.228;20.890;2023-04-10T06:44:58;18.63;;;11.50;;
42084;SDS011;27746;52.228;20.890;2023-04-10T06:47:24;16.95;;;11.07;;
42084;SDS011;27746;52.228;20.890;2023-04-10T06:49:52;16.80;;;10.63;;
42084;SDS011;27746;52.228;20.890;2023-04-10T06:52:20;14.65;;;10.07;;
42084;SDS011;27746;52.228;20.890;2023-04-10T06:54:47;15.55;;;10.45;;
42084;SDS011;27746;52.228;20.890;2023-04-10T06:57:14;16.02;;;10.68;;
42084;SDS011;27746;52.228;20.890;2023-04-10T06:59:42;15.30;;;10.57;;
42084;SDS011;27746;52.228;20.890;2023-04-10T07:02:10;14.85;;;9.70;;
42084;SDS011;27746;52.228;20.890;2023-04-10T07:04:37;18.70;;;8.98;;
42084;SDS011;27746;52.228;20.890;2023-04-10T07:07:04;16.85;;;9.10;;
42084;SDS011;27746;52.228;20.890;2023-04-10T07:09:35;14.93;;;10.05;;
42084;SDS011;27746;52.228;20.890;2023-04-10T07:12:03;13.43;;;7.78;;
42084;SDS011;27746;52.228;20.890;2023-04-10T07:14:31;11.65;;;7.45;;
42084;SDS011;27746;52.228;20.890;2023-04-10T07:16:59;11.93;;;6.85;;
42084;SDS011;27746;52.228;20.890;2023-04-10T07:19:27;14.95;;;9.00;;
42084;SDS011;27746;52.228;20.890;2023-04-10T07:21:54;13.45;;;7.10;;
42084;SDS011;27746;52.228;20.890;2023-04-10T07:24:21;12.15;;;7.15;;
42084;SDS011;27746;52.228;20.890;2023-04-10T07:26:50;14.20;;;7.85;;
42084;SDS011;27746;52.228;20.890;2023-04-10T07:29:17;9.68;;;7.00;;
42084;SDS011;27746;52.228;20.890;2023-04-10T07:31:44;12.68;;;7.93;;
42084;SDS011;27746;52.228;20.890;2023-04-10T07:34:10;12.05;;;7.07;;
42084;SDS011;27746;52.228;20.890;2023-04-10T07:36:37;12.05;;;7.35;;
42084;SDS011;27746;52.228;20.890;2023-04-10T07:39:04;12.40;;;7.25;;
42084;SDS011;27746;52.228;20.890;2023-04-10T07:41:31;10.70;;;6.50;;
42084;SDS011;27746;52.228;20.890;2023-04-10T07:44:00;13.27;;;6.80;;
42084;SDS011;27746;52.228;20.890;2023-04-10T07:46:27;10.80;;;6.80;;
42084;SDS011;27746;52.228;20.890;2023-04-10T07:48:54;12.50;;;7.75;;
42084;SDS011;27746;52.228;20.890;2023-04-10T07:51:21;12.73;;;7.38;;
42084;SDS011;27746;52.228;20.890;2023-04-10T07:53:48;10.15;;;6.85;;
42084;SDS011;27746;52.228;20.890;2023-04-10T07:56:16;11.50;;;7.78;;
42084;SDS011;27746;52.228;20.890;2023-04-10T07:58:44;9.90;;;7.18;;
42084;SDS011;27746;52.228;20.890;2023-04-10T08:01:13;13.70;;;9.05;;
42084;SDS011;27746;52.228;20.890;2023-04-10T08:03:42;13.35;;;8.82;;
42084;SDS011;27746;52.228;20.890;2023-04-10T08:06:11;13.10;;;8.05;;
42084;SDS011;27746;52.228;20.890;2023-04-10T08:08:39;16.33;;;7.82;;
42084;SDS011;27746;52.228;20.890;2023-04-10T08:11:07;11.23;;;8.18;;
42084;SDS011;27746;52.228;20.890;2023-04-10T08:13:48;15.25;;;8.13;;
42084;SDS011;27746;52.228;20.890;2023-04-10T08:16:28;15.25;;;9.60;;
42084;SDS011;27746;52.228;20.890;2023-04-10T08:18:56;18.85;;;11.57;;
42084;SDS011;27746;52.228;20.890;2023-04-10T08:21:25;20.23;;;10.20;;
42084;SDS011;27746;52.228;20.890;2023-04-10T08:23:53;19.63;;;10.82;;
42084;SDS011;27746;52.228;20.890;2023-04-10T08:26:21;17.10;;;10.27;;
42084;SDS011;27746;52.228;20.890;2023-04-10T08:28:48;15.98;;;8.95;;
42084;SDS011;27746;52.228;20.890;2023-04-10T08:31:16;12.35;;;7.68;;
42084;SDS011;27746;52.228;20.890;2023-04-10T08:33:44;14.27;;;8.48;;
42084;SDS011;27746;52.228;20.890;2023-04-10T08:36:12;14.93;;;8.25;;
42084;SDS011;27746;52.228;20.890;2023-04-10T08:38:40;11.30;;;7.97;;
42084;SDS011;27746;52.228;20.890;2023-04-10T08:41:09;14.95;;;8.20;;
42084;SDS011;27746;52.228;20.890;2023-04-10T08:43:37;10.65;;;7.03;;
42084;SDS011;27746;52.228;20.890;2023-04-10T08:46:04;11.70;;;6.65;;
42084;SDS011;27746;52.228;20.890;2023-04-10T08:48:34;14.20;;;7.20;;
42084;SDS011;27746;52.228;20.890;2023-04-10T08:51:06;13.48;;;7.88;;
42084;SDS011;27746;52.228;20.890;2023-04-10T08:53:39;9.73;;;6.88;;
42084;SDS011;27746;52.228;20.890;2023-04-10T08:56:08;13.73;;;7.20;;
42084;SDS011;27746;52.228;20.890;2023-04-10T08:58:38;12.63;;;7.10;;
42084;SDS011;27746;52.228;20.890;2023-04-10T09:01:06;13.65;;;6.78;;
42084;SDS011;27746;52.228;20.890;2023-04-10T09:03:34;13.20;;;7.13;;
42084;SDS011;27746;52.228;20.890;2023-04-10T09:06:01;12.95;;;7.47;;
42084;SDS011;27746;52.228;20.890;2023-04-10T09:08:30;8.15;;;5.50;;
42084;SDS011;27746;52.228;20.890;2023-04-10T09:10:58;8.32;;;5.28;;
42084;SDS011;27746;52.228;20.890;2023-04-10T09:13:34;8.90;;;6.35;;
42084;SDS011;27746;52.228;20.890;2023-04-10T09:16:03;10.85;;;5.28;;
42084;SDS011;27746;52.228;20.890;2023-04-10T09:18:40;6.63;;;4.32;;
42084;SDS011;27746;52.228;20.890;2023-04-10T09:21:08;7.57;;;4.70;;
42084;SDS011;27746;52.228;20.890;2023-04-10T09:23:37;8.77;;;4.82;;
42084;SDS011;27746;52.228;20.890;2023-04-10T09:26:20;7.60;;;4.63;;
42084;SDS011;27746;52.228;20.890;2023-04-10T09:28:55;6.35;;;4.25;;
42084;SDS011;27746;52.228;20.890;2023-04-10T09:31:29;8.50;;;5.43;;
42084;SDS011;27746;52.228;20.890;2023-04-10T09:34:10;8.15;;;4.93;;
42084;SDS011;27746;52.228;20.890;2023-04-10T09:36:39;9.77;;;4.40;;
42084;SDS011;27746;52.228;20.890;2023-04-10T09:39:08;9.80;;;5.00;;
42084;SDS011;27746;52.228;20.890;2023-04-10T09:41:45;10.10;;;4.63;;
42084;SDS011;27746;52.228;20.890;2023-04-10T09:44:15;8.48;;;5.18;;
42084;SDS011;27746;52.228;20.890;2023-04-10T09:46:43;8.60;;;5.05;;
42084;SDS011;27746;52.228;20.890;2023-04-10T09:49:10;10.60;;;5.28;;
42084;SDS011;27746;52.228;20.890;2023-04-10T09:51:37;8.57;;;4.70;;
42084;SDS011;27746;52.228;20.890;2023-04-10T09:54:04;7.97;;;4.85;;
42084;SDS011;27746;52.228;20.890;2023-04-10T09:56:33;8.68;;;4.78;;
42084;SDS011;27746;52.228;20.890;2023-04-10T09:59:03;6.53;;;3.63;;
42084;SDS011;27746;52.228;20.890;2023-04-10T10:01:32;7.22;;;3.97;;
42084;SDS011;27746;52.228;20.890;2023-04-10T10:04:00;7.00;;;3.67;;
42084;SDS011;27746;52.228;20.890;2023-04-10T10:06:28;9.25;;;4.68;;
42084;SDS011;27746;52.228;20.890;2023-04-10T10:08:56;6.97;;;3.50;;
42084;SDS011;27746;52.228;20.890;2023-04-10T10:11:26;7.43;;;4.03;;
42084;SDS011;27746;52.228;20.890;2023-04-10T10:13:56;6.10;;;3.78;;
42084;SDS011;27746;52.228;20.890;2023-04-10T10:16:26;5.95;;;3.90;;
42084;SDS011;27746;52.228;20.890;2023-04-10T10:18:57;6.72;;;3.80;;
42084;SDS011;27746;52.228;20.890;2023-04-10T10:21:30;9.25;;;3.60;;
42084;SDS011;27746;52.228;20.890;2023-04-10T10:24:00;10.73;;;3.95;;
42084;SDS011;27746;52.228;20.890;2023-04-10T10:26:28;7.00;;;3.35;;
42084;SDS011;27746;52.228;20.890;2023-04-10T10:29:00;8.35;;;3.25;;
42084;SDS011;27746;52.228;20.890;2023-04-10T10:31:29;5.57;;;3.58;;
42084;SDS011;27746;52.228;20.890;2023-04-10T10:33:59;5.82;;;3.30;;
42084;SDS011;27746;52.228;20.890;2023-04-10T10:36:29;7.50;;;3.50;;
42084;SDS011;27746;52.228;20.890;2023-04-10T10:39:07;6.07;;;3.30;;
42084;SDS011;27746;52.228;20.890;2023-04-10T10:41:42;5.90;;;3.33;;
42084;SDS011;27746;52.228;20.890;2023-04-10T10:44:22;9.57;;;3.55;;
42084;SDS011;27746;52.228;20.890;2023-04-10T10:46:57;5.30;;;3.85;;
42084;SDS011;27746;52.228;20.890;2023-04-10T10:57:59;7.15;;;3.33;;
42084;SDS011;27746;52.228;20.890;2023-04-10T11:03:28;5.82;;;2.95;;
42084;SDS011;27746;52.228;20.890;2023-04-10T11:05:55;8.45;;;3.53;;
42084;SDS011;27746;52.228;20.890;2023-04-10T11:08:37;5.57;;;2.80;;
42084;SDS011;27746;52.228;20.890;2023-04-10T11:11:10;5.55;;;2.75;;
42084;SDS011;27746;52.228;20.890;2023-04-10T11:14:10;7.85;;;3.20;;
42084;SDS011;27746;52.228;20.890;2023-04-10T11:16:45;8.27;;;2.75;;
42084;SDS011;27746;52.228;20.890;2023-04-10T11:19:14;5.80;;;2.83;;
42084;SDS011;27746;52.228;20.890;2023-04-10T11:22:03;6.82;;;2.97;;
42084;SDS011;27746;52.228;20.890;2023-04-10T11:24:53;8.48;;;4.53;;
42084;SDS011;27746;52.228;20.890;2023-04-10T11:27:41;5.43;;;2.58;;
42084;SDS011;27746;52.228;20.890;2023-04-10T11:30:29;6.60;;;2.50;;
42084;SDS011;27746;52.228;20.890;2023-04-10T11:32:58;6.57;;;2.75;;
42084;SDS011;27746;52.228;20.890;2023-04-10T11:35:26;5.70;;;2.65;;
42084;SDS011;27746;52.228;20.890;2023-04-10T11:38:11;5.32;;;3.15;;
42084;SDS011;27746;52.228;20.890;2023-04-10T11:40:52;6.28;;;2.70;;
42084;SDS011;27746;52.228;20.890;2023-04-10T11:43:19;4.93;;;2.40;;
42084;SDS011;27746;52.228;20.890;2023-04-10T11:45:47;4.38;;;2.45;;
42084;SDS011;27746;52.228;20.890;2023-04-10T11:48:14;4.63;;;2.30;;
42084;SDS011;27746;52.228;20.890;2023-04-10T11:50:43;5.22;;;2.42;;
42084;SDS011;27746;52.228;20.890;2023-04-10T11:53:16;5.28;;;2.90;;
42084;SDS011;27746;52.228;20.890;2023-04-10T11:55:44;7.78;;;3.35;;
42084;SDS011;27746;52.228;20.890;2023-04-10T11:58:24;7.07;;;2.63;;
42084;SDS011;27746;52.228;20.890;2023-04-10T12:00:59;4.22;;;2.10;;
42084;SDS011;27746;52.228;20.890;2023-04-10T12:03:30;5.43;;;2.42;;
42084;SDS011;27746;52.228;20.890;2023-04-10T12:06:03;5.05;;;2.50;;
42084;SDS011;27746;52.228;20.890;2023-04-10T12:08:32;4.60;;;2.30;;
42084;SDS011;27746;52.228;20.890;2023-04-10T12:11:00;3.85;;;2.80;;
42084;SDS011;27746;52.228;20.890;2023-04-10T12:13:27;5.85;;;3.00;;
42084;SDS011;27746;52.228;20.890;2023-04-10T12:15:56;5.72;;;2.83;;
42084;SDS011;27746;52.228;20.890;2023-04-10T12:18:25;7.03;;;2.90;;
42084;SDS011;27746;52.228;20.890;2023-04-10T12:20:52;6.68;;;3.05;;
42084;SDS011;27746;52.228;20.890;2023-04-10T12:23:22;6.72;;;2.78;;
42084;SDS011;27746;52.228;20.890;2023-04-10T12:25:50;4.88;;;2.63;;
42084;SDS011;27746;52.228;20.890;2023-04-10T12:28:17;4.78;;;3.13;;
42084;SDS011;27746;52.228;20.890;2023-04-10T12:30:46;5.15;;;2.70;;
42084;SDS011;27746;52.228;20.890;2023-04-10T12:33:13;6.05;;;2.70;;
42084;SDS011;27746;52.228;20.890;2023-04-10T12:35:40;4.43;;;2.70;;
42084;SDS011;27746;52.228;20.890;2023-04-10T12:38:07;5.15;;;2.30;;
42084;SDS011;27746;52.228;20.890;2023-04-10T12:40:35;8.45;;;2.65;;
42084;SDS011;27746;52.228;20.890;2023-04-10T12:43:04;7.45;;;2.67;;
42084;SDS011;27746;52.228;20.890;2023-04-10T12:45:40;5.30;;;2.25;;
42084;SDS011;27746;52.228;20.890;2023-04-10T12:48:07;6.15;;;2.10;;
42084;SDS011;27746;52.228;20.890;2023-04-10T12:50:44;5.55;;;2.60;;
42084;SDS011;27746;52.228;20.890;2023-04-10T12:53:11;4.15;;;2.22;;
42084;SDS011;27746;52.228;20.890;2023-04-10T12:55:40;7.03;;;2.60;;
42084;SDS011;27746;52.228;20.890;2023-04-10T12:58:16;5.03;;;2.22;;
42084;SDS011;27746;52.228;20.890;2023-04-10T13:00:45;5.10;;;2.40;;
42084;SDS011;27746;52.228;20.890;2023-04-10T13:03:12;6.15;;;2.40;;
42084;SDS011;27746;52.228;20.890;2023-04-10T13:05:39;5.85;;;2.80;;
42084;SDS011;27746;52.228;20.890;2023-04-10T13:08:06;4.55;;;2.58;;
42084;SDS011;27746;52.228;20.890;2023-04-10T13:10:33;4.63;;;2.58;;
42084;SDS011;27746;52.228;20.890;2023-04-10T13:13:03;6.00;;;2.60;;
42084;SDS011;27746;52.228;20.890;2023-04-10T13:15:31;5.38;;;2.58;;
42084;SDS011;27746;52.228;20.890;2023-04-10T13:17:59;6.35;;;2.60;;
42084;SDS011;27746;52.228;20.890;2023-04-10T13:20:26;5.75;;;2.42;;
42084;SDS011;27746;52.228;20.890;2023-04-10T13:22:55;5.57;;;2.40;;
42084;SDS011;27746;52.228;20.890;2023-04-10T13:25:21;8.23;;;2.72;;
42084;SDS011;27746;52.228;20.890;2023-04-10T13:27:48;6.20;;;2.92;;
42084;SDS011;27746;52.228;20.890;2023-04-10T13:30:17;5.55;;;2.78;;
42084;SDS011;27746;52.228;20.890;2023-04-10T13:32:44;5.82;;;2.60;;
42084;SDS011;27746;52.228;20.890;2023-04-10T13:35:11;5.40;;;2.22;;
42084;SDS011;27746;52.228;20.890;2023-04-10T13:37:38;6.65;;;2.30;;
42084;SDS011;27746;52.228;20.890;2023-04-10T13:40:05;6.53;;;2.45;;
42084;SDS011;27746;52.228;20.890;2023-04-10T13:42:33;7.35;;;2.80;;
42084;SDS011;27746;52.228;20.890;2023-04-10T13:45:00;6.68;;;2.88;;
42084;SDS011;27746;52.228;20.890;2023-04-10T13:47:28;4.93;;;2.67;;
42084;SDS011;27746;52.228;20.890;2023-04-10T13:49:55;11.52;;;3.10;;
42084;SDS011;27746;52.228;20.890;2023-04-10T13:52:22;4.57;;;2.42;;
42084;SDS011;27746;52.228;20.890;2023-04-10T13:54:49;6.22;;;2.53;;
42084;SDS011;27746;52.228;20.890;2023-04-10T13:57:16;6.50;;;2.83;;
42084;SDS011;27746;52.228;20.890;2023-04-10T13:59:43;7.88;;;3.30;;
42084;SDS011;27746;52.228;20.890;2023-04-10T14:02:10;4.30;;;2.83;;
42084;SDS011;27746;52.228;20.890;2023-04-10T14:04:38;4.25;;;2.42;;
42084;SDS011;27746;52.228;20.890;2023-04-10T14:07:06;4.80;;;2.30;;
42084;SDS011;27746;52.228;20.890;2023-04-10T14:09:34;7.40;;;2.80;;
42084;SDS011;27746;52.228;20.890;2023-04-10T14:12:01;6.47;;;2.70;;
42084;SDS011;27746;52.228;20.890;2023-04-10T14:14:28;5.90;;;2.60;;
42084;SDS011;27746;52.228;20.890;2023-04-10T14:16:55;5.72;;;2.55;;
42084;SDS011;27746;52.228;20.890;2023-04-10T14:19:23;4.22;;;2.55;;
42084;SDS011;27746;52.228;20.890;2023-04-10T14:21:51;7.72;;;3.00;;
42084;SDS011;27746;52.228;20.890;2023-04-10T14:24:18;3.83;;;2.72;;
42084;SDS011;27746;52.228;20.890;2023-04-10T14:26:46;7.10;;;2.83;;
42084;SDS011;27746;52.228;20.890;2023-04-10T14:29:13;4.90;;;2.78;;
42084;SDS011;27746;52.228;20.890;2023-04-10T14:31:40;7.75;;;3.40;;
42084;SDS011;27746;52.228;20.890;2023-04-10T14:34:07;8.77;;;2.90;;
42084;SDS011;27746;52.228;20.890;2023-04-10T14:36:34;7.50;;;3.28;;
42084;SDS011;27746;52.228;20.890;2023-04-10T14:39:05;5.88;;;3.45;;
42084;SDS011;27746;52.228;20.890;2023-04-10T14:41:31;8.23;;;3.35;;
42084;SDS011;27746;52.228;20.890;2023-04-10T14:43:59;6.65;;;3.75;;